sensor_id;sensor_type;location;lat;lon;timestamp;P1;durP1;ratioP1;P2;durP2;ratioP2
65328;SDS011;51941;52.210;5.158;2024-03-06T00:01:53;26.38;;;11.43;;
65328;SDS011;51941;52.210;5.158;2024-03-06T00:04:20;26.58;;;11.05;;
65328;SDS011;51941;52.210;5.158;2024-03-06T00:06:47;30.38;;;11.65;;
65328;SDS011;51941;52.210;5.158;2024-03-06T00:09:14;29.98;;;11.73;;
65328;SDS011;51941;52.210;5.158;2024-03-06T00:11:42;28.58;;;11.82;;
65328;SDS011;51941;52.210;5.158;2024-03-06T00:14:09;27.92;;;11.18;;
65328;SDS011;51941;52.210;5.158;2024-03-06T00:16:37;28.27;;;12.85;;
65328;SDS011;51941;52.210;5.158;2024-03-06T00:19:04;30.95;;;11.98;;
65328;SDS011;51941;52.210;5.158;2024-03-06T00:21:31;32.53;;;13.05;;
65328;SDS011;51941;52.210;5.158;2024-03-06T00:23:58;28.85;;;13.75;;
65328;SDS011;51941;52.210;5.158;2024-03-06T00:26:25;25.98;;;11.68;;
65328;SDS011;51941;52.210;5.158;2024-03-06T00:28:53;30.17;;;11.80;;
65328;SDS011;51941;52.210;5.158;2024-03-06T00:31:19;27.60;;;11.55;;
65328;SDS011;51941;52.210;5.158;2024-03-06T00:33:47;26.60;;;11.07;;
65328;SDS011;51941;52.210;5.158;2024-03-06T00:36:14;23.08;;;11.77;;
65328;SDS011;51941;52.210;5.158;2024-03-06T00:38:41;25.05;;;12.02;;
65328;SDS011;51941;52.210;5.158;2024-03-06T00:41:08;26.52;;;12.05;;
65328;SDS011;51941;52.210;5.158;2024-03-06T00:43:35;26.45;;;12.50;;
65328;SDS011;51941;52.210;5.158;2024-03-06T00:46:04;26.02;;;12.00;;
65328;SDS011;51941;52.210;5.158;2024-03-06T00:48:30;27.30;;;12.18;;
65328;SDS011;51941;52.210;5.158;2024-03-06T00:50:58;26.98;;;12.32;;
65328;SDS011;51941;52.210;5.158;2024-03-06T00:53:25;29.45;;;12.07;;
65328;SDS011;51941;52.210;5.158;2024-03-06T00:55:51;27.85;;;12.00;;
65328;SDS011;51941;52.210;5.158;2024-03-06T00:58:18;25.80;;;12.73;;
65328;SDS011;51941;52.210;5.158;2024-03-06T01:00:45;27.70;;;11.82;;
65328;SDS011;51941;52.210;5.158;2024-03-06T01:03:14;27.05;;;10.95;;
65328;SDS011;51941;52.210;5.158;2024-03-06T01:05:41;22.10;;;10.27;;
65328;SDS011;51941;52.210;5.158;2024-03-06T01:08:08;22.65;;;10.90;;
65328;SDS011;51941;52.210;5.158;2024-03-06T01:10:35;22.33;;;10.90;;
65328;SDS011;51941;52.210;5.158;2024-03-06T01:13:01;23.88;;;10.75;;
65328;SDS011;51941;52.210;5.158;2024-03-06T01:15:28;26.98;;;12.07;;
65328;SDS011;51941;52.210;5.158;2024-03-06T01:17:55;24.25;;;10.93;;
65328;SDS011;51941;52.210;5.158;2024-03-06T01:20:24;29.23;;;10.88;;
65328;SDS011;51941;52.210;5.158;2024-03-06T01:22:51;23.20;;;10.82;;
65328;SDS011;51941;52.210;5.158;2024-03-06T01:25:18;25.30;;;11.93;;
65328;SDS011;51941;52.210;5.158;2024-03-06T01:27:45;24.63;;;11.77;;
65328;SDS011;51941;52.210;5.158;2024-03-06T01:30:11;21.80;;;9.55;;
65328;SDS011;51941;52.210;5.158;2024-03-06T01:32:38;23.98;;;11.13;;
65328;SDS011;51941;52.210;5.158;2024-03-06T01:35:05;21.67;;;10.50;;
65328;SDS011;51941;52.210;5.158;2024-03-06T01:37:34;26.10;;;10.13;;
65328;SDS011;51941;52.210;5.158;2024-03-06T01:40:01;22.95;;;9.95;;
65328;SDS011;51941;52.210;5.158;2024-03-06T01:42:30;21.52;;;10.50;;
65328;SDS011;51941;52.210;5.158;2024-03-06T01:44:57;27.50;;;10.15;;
65328;SDS011;51941;52.210;5.158;2024-03-06T01:47:24;26.42;;;11.52;;
65328;SDS011;51941;52.210;5.158;2024-03-06T01:49:51;21.83;;;9.10;;
65328;SDS011;51941;52.210;5.158;2024-03-06T01:52:18;19.13;;;10.02;;
65328;SDS011;51941;52.210;5.158;2024-03-06T01:54:49;21.45;;;9.82;;
65328;SDS011;51941;52.210;5.158;2024-03-06T01:57:17;27.50;;;10.25;;
65328;SDS011;51941;52.210;5.158;2024-03-06T01:59:45;25.83;;;9.98;;
65328;SDS011;51941;52.210;5.158;2024-03-06T02:02:13;23.52;;;9.55;;
65328;SDS011;51941;52.210;5.158;2024-03-06T02:04:40;26.88;;;10.82;;
65328;SDS011;51941;52.210;5.158;2024-03-06T02:07:08;26.17;;;10.75;;
65328;SDS011;51941;52.210;5.158;2024-03-06T02:09:36;23.88;;;11.02;;
65328;SDS011;51941;52.210;5.158;2024-03-06T02:12:06;19.90;;;9.27;;
65328;SDS011;51941;52.210;5.158;2024-03-06T02:14:34;28.40;;;10.95;;
65328;SDS011;51941;52.210;5.158;2024-03-06T02:17:01;24.50;;;12.25;;
65328;SDS011;51941;52.210;5.158;2024-03-06T02:19:37;26.67;;;10.80;;
65328;SDS011;51941;52.210;5.158;2024-03-06T02:22:06;23.85;;;11.25;;
65328;SDS011;51941;52.210;5.158;2024-03-06T02:24:33;23.42;;;11.32;;
65328;SDS011;51941;52.210;5.158;2024-03-06T02:27:00;27.67;;;10.73;;
65328;SDS011;51941;52.210;5.158;2024-03-06T02:29:27;27.27;;;12.25;;
65328;SDS011;51941;52.210;5.158;2024-03-06T02:31:54;27.52;;;10.98;;
65328;SDS011;51941;52.210;5.158;2024-03-06T02:34:20;26.50;;;11.80;;
65328;SDS011;51941;52.210;5.158;2024-03-06T02:36:47;19.85;;;9.43;;
65328;SDS011;51941;52.210;5.158;2024-03-06T02:39:15;27.83;;;11.75;;
65328;SDS011;51941;52.210;5.158;2024-03-06T02:41:42;26.17;;;12.23;;
65328;SDS011;51941;52.210;5.158;2024-03-06T02:44:09;23.73;;;12.10;;
65328;SDS011;51941;52.210;5.158;2024-03-06T02:46:36;28.90;;;13.35;;
65328;SDS011;51941;52.210;5.158;2024-03-06T02:49:03;27.05;;;12.02;;
65328;SDS011;51941;52.210;5.158;2024-03-06T02:51:31;29.73;;;11.55;;
65328;SDS011;51941;52.210;5.158;2024-03-06T02:53:57;28.77;;;12.57;;
65328;SDS011;51941;52.210;5.158;2024-03-06T02:56:25;23.58;;;11.98;;
65328;SDS011;51941;52.210;5.158;2024-03-06T02:58:52;23.63;;;11.07;;
65328;SDS011;51941;52.210;5.158;2024-03-06T03:01:20;23.85;;;11.80;;
65328;SDS011;51941;52.210;5.158;2024-03-06T03:03:47;26.60;;;12.45;;
65328;SDS011;51941;52.210;5.158;2024-03-06T03:06:14;30.20;;;11.38;;
65328;SDS011;51941;52.210;5.158;2024-03-06T03:08:41;29.02;;;13.10;;
65328;SDS011;51941;52.210;5.158;2024-03-06T03:11:07;30.40;;;13.35;;
65328;SDS011;51941;52.210;5.158;2024-03-06T03:13:37;28.15;;;13.10;;
65328;SDS011;51941;52.210;5.158;2024-03-06T03:16:04;30.92;;;13.20;;
65328;SDS011;51941;52.210;5.158;2024-03-06T03:18:31;21.00;;;10.82;;
65328;SDS011;51941;52.210;5.158;2024-03-06T03:20:58;26.17;;;12.80;;
65328;SDS011;51941;52.210;5.158;2024-03-06T03:23:24;21.85;;;10.98;;
65328;SDS011;51941;52.210;5.158;2024-03-06T03:25:51;28.65;;;11.50;;
65328;SDS011;51941;52.210;5.158;2024-03-06T03:28:18;29.48;;;13.20;;
65328;SDS011;51941;52.210;5.158;2024-03-06T03:30:46;24.63;;;11.65;;
65328;SDS011;51941;52.210;5.158;2024-03-06T03:33:13;25.30;;;10.70;;
65328;SDS011;51941;52.210;5.158;2024-03-06T03:35:42;29.45;;;12.77;;
65328;SDS011;51941;52.210;5.158;2024-03-06T03:38:09;20.48;;;9.55;;
65328;SDS011;51941;52.210;5.158;2024-03-06T03:40:36;25.80;;;12.43;;
65328;SDS011;51941;52.210;5.158;2024-03-06T03:43:03;25.40;;;11.90;;
65328;SDS011;51941;52.210;5.158;2024-03-06T03:45:31;31.60;;;13.25;;
65328;SDS011;51941;52.210;5.158;2024-03-06T03:48:01;26.80;;;13.40;;
65328;SDS011;51941;52.210;5.158;2024-03-06T03:50:29;23.23;;;10.38;;
65328;SDS011;51941;52.210;5.158;2024-03-06T03:52:55;29.30;;;12.85;;
65328;SDS011;51941;52.210;5.158;2024-03-06T03:55:26;23.60;;;11.35;;
65328;SDS011;51941;52.210;5.158;2024-03-06T03:57:52;28.23;;;12.35;;
65328;SDS011;51941;52.210;5.158;2024-03-06T04:00:19;26.85;;;12.15;;
65328;SDS011;51941;52.210;5.158;2024-03-06T04:02:48;31.75;;;14.05;;
65328;SDS011;51941;52.210;5.158;2024-03-06T04:05:16;23.42;;;12.05;;
65328;SDS011;51941;52.210;5.158;2024-03-06T04:07:43;28.60;;;13.30;;
65328;SDS011;51941;52.210;5.158;2024-03-06T04:10:11;31.83;;;12.43;;
65328;SDS011;51941;52.210;5.158;2024-03-06T04:12:37;26.52;;;12.52;;
65328;SDS011;51941;52.210;5.158;2024-03-06T04:15:05;33.97;;;13.40;;
65328;SDS011;51941;52.210;5.158;2024-03-06T04:17:33;28.77;;;11.10;;
65328;SDS011;51941;52.210;5.158;2024-03-06T04:20:00;26.73;;;11.63;;
65328;SDS011;51941;52.210;5.158;2024-03-06T04:22:30;29.00;;;13.13;;
65328;SDS011;51941;52.210;5.158;2024-03-06T04:24:57;25.35;;;11.77;;
65328;SDS011;51941;52.210;5.158;2024-03-06T04:27:24;29.02;;;12.40;;
65328;SDS011;51941;52.210;5.158;2024-03-06T04:29:51;31.67;;;12.43;;
65328;SDS011;51941;52.210;5.158;2024-03-06T04:32:18;30.17;;;13.40;;
65328;SDS011;51941;52.210;5.158;2024-03-06T04:34:45;30.40;;;13.25;;
65328;SDS011;51941;52.210;5.158;2024-03-06T04:37:12;31.67;;;13.30;;
65328;SDS011;51941;52.210;5.158;2024-03-06T04:39:40;32.08;;;15.88;;
65328;SDS011;51941;52.210;5.158;2024-03-06T04:42:07;32.33;;;13.98;;
65328;SDS011;51941;52.210;5.158;2024-03-06T04:44:34;38.25;;;13.75;;
65328;SDS011;51941;52.210;5.158;2024-03-06T04:47:03;28.65;;;12.35;;
65328;SDS011;51941;52.210;5.158;2024-03-06T04:49:32;27.42;;;12.02;;
65328;SDS011;51941;52.210;5.158;2024-03-06T04:51:59;21.45;;;9.80;;
65328;SDS011;51941;52.210;5.158;2024-03-06T04:54:26;31.67;;;13.27;;
65328;SDS011;51941;52.210;5.158;2024-03-06T04:56:54;29.63;;;12.35;;
65328;SDS011;51941;52.210;5.158;2024-03-06T04:59:21;23.98;;;10.43;;
65328;SDS011;51941;52.210;5.158;2024-03-06T05:01:48;20.42;;;8.55;;
65328;SDS011;51941;52.210;5.158;2024-03-06T05:04:15;25.60;;;11.82;;
65328;SDS011;51941;52.210;5.158;2024-03-06T05:06:42;23.65;;;10.43;;
65328;SDS011;51941;52.210;5.158;2024-03-06T05:09:08;23.50;;;9.77;;
65328;SDS011;51941;52.210;5.158;2024-03-06T05:11:36;31.08;;;13.95;;
65328;SDS011;51941;52.210;5.158;2024-03-06T05:14:05;33.08;;;12.98;;
65328;SDS011;51941;52.210;5.158;2024-03-06T05:16:32;28.10;;;12.05;;
65328;SDS011;51941;52.210;5.158;2024-03-06T05:18:59;31.13;;;12.48;;
65328;SDS011;51941;52.210;5.158;2024-03-06T05:21:26;25.02;;;10.73;;
65328;SDS011;51941;52.210;5.158;2024-03-06T05:23:53;28.88;;;13.13;;
65328;SDS011;51941;52.210;5.158;2024-03-06T05:26:20;23.92;;;10.85;;
65328;SDS011;51941;52.210;5.158;2024-03-06T05:28:47;32.03;;;12.90;;
65328;SDS011;51941;52.210;5.158;2024-03-06T05:31:17;29.30;;;12.20;;
65328;SDS011;51941;52.210;5.158;2024-03-06T05:33:46;24.15;;;9.00;;
65328;SDS011;51941;52.210;5.158;2024-03-06T05:36:14;27.10;;;12.85;;
65328;SDS011;51941;52.210;5.158;2024-03-06T05:38:42;28.02;;;12.15;;
65328;SDS011;51941;52.210;5.158;2024-03-06T05:41:09;25.90;;;12.05;;
65328;SDS011;51941;52.210;5.158;2024-03-06T05:43:36;29.25;;;12.57;;
65328;SDS011;51941;52.210;5.158;2024-03-06T05:46:03;25.17;;;11.98;;
65328;SDS011;51941;52.210;5.158;2024-03-06T05:48:31;29.20;;;13.65;;
65328;SDS011;51941;52.210;5.158;2024-03-06T05:50:59;30.73;;;13.60;;
65328;SDS011;51941;52.210;5.158;2024-03-06T05:53:26;23.20;;;11.93;;
65328;SDS011;51941;52.210;5.158;2024-03-06T05:55:52;31.35;;;13.43;;
65328;SDS011;51941;52.210;5.158;2024-03-06T05:58:19;26.83;;;10.95;;
65328;SDS011;51941;52.210;5.158;2024-03-06T06:00:47;25.55;;;11.90;;
65328;SDS011;51941;52.210;5.158;2024-03-06T06:03:14;23.92;;;8.20;;
65328;SDS011;51941;52.210;5.158;2024-03-06T06:05:42;30.77;;;12.80;;
65328;SDS011;51941;52.210;5.158;2024-03-06T06:08:09;25.75;;;10.32;;
65328;SDS011;51941;52.210;5.158;2024-03-06T06:10:36;27.08;;;12.23;;
65328;SDS011;51941;52.210;5.158;2024-03-06T06:13:03;27.50;;;13.30;;
65328;SDS011;51941;52.210;5.158;2024-03-06T06:15:30;29.30;;;13.23;;
65328;SDS011;51941;52.210;5.158;2024-03-06T06:17:57;32.10;;;11.90;;
65328;SDS011;51941;52.210;5.158;2024-03-06T06:20:24;33.15;;;14.38;;
65328;SDS011;51941;52.210;5.158;2024-03-06T06:22:53;26.67;;;12.73;;
65328;SDS011;51941;52.210;5.158;2024-03-06T06:25:19;28.88;;;13.02;;
65328;SDS011;51941;52.210;5.158;2024-03-06T06:27:46;25.55;;;10.77;;
65328;SDS011;51941;52.210;5.158;2024-03-06T06:30:14;30.38;;;13.23;;
65328;SDS011;51941;52.210;5.158;2024-03-06T06:32:42;27.60;;;12.93;;
65328;SDS011;51941;52.210;5.158;2024-03-06T06:35:09;25.27;;;11.23;;
65328;SDS011;51941;52.210;5.158;2024-03-06T06:37:38;27.88;;;9.80;;
65328;SDS011;51941;52.210;5.158;2024-03-06T06:40:08;28.40;;;13.43;;
65328;SDS011;51941;52.210;5.158;2024-03-06T06:42:37;28.67;;;12.23;;
65328;SDS011;51941;52.210;5.158;2024-03-06T06:45:04;24.63;;;11.70;;
65328;SDS011;51941;52.210;5.158;2024-03-06T06:47:32;29.98;;;12.65;;
65328;SDS011;51941;52.210;5.158;2024-03-06T06:49:59;32.78;;;11.57;;
65328;SDS011;51941;52.210;5.158;2024-03-06T06:52:30;23.40;;;10.77;;
65328;SDS011;51941;52.210;5.158;2024-03-06T06:54:58;27.23;;;11.38;;
65328;SDS011;51941;52.210;5.158;2024-03-06T06:57:26;26.33;;;12.32;;
65328;SDS011;51941;52.210;5.158;2024-03-06T06:59:53;27.75;;;11.48;;
65328;SDS011;51941;52.210;5.158;2024-03-06T07:02:20;22.90;;;9.40;;
65328;SDS011;51941;52.210;5.158;2024-03-06T07:04:47;27.08;;;12.27;;
65328;SDS011;51941;52.210;5.158;2024-03-06T07:07:14;26.55;;;13.25;;
65328;SDS011;51941;52.210;5.158;2024-03-06T07:09:42;26.85;;;12.68;;
65328;SDS011;51941;52.210;5.158;2024-03-06T07:12:09;29.25;;;13.45;;
65328;SDS011;51941;52.210;5.158;2024-03-06T07:14:37;26.38;;;13.13;;
65328;SDS011;51941;52.210;5.158;2024-03-06T07:17:04;31.45;;;13.60;;
65328;SDS011;51941;52.210;5.158;2024-03-06T07:19:30;32.30;;;12.88;;
65328;SDS011;51941;52.210;5.158;2024-03-06T07:22:00;31.83;;;13.02;;
65328;SDS011;51941;52.210;5.158;2024-03-06T07:24:27;33.08;;;13.05;;
65328;SDS011;51941;52.210;5.158;2024-03-06T07:26:53;29.63;;;12.60;;
65328;SDS011;51941;52.210;5.158;2024-03-06T07:29:20;24.17;;;10.93;;
65328;SDS011;51941;52.210;5.158;2024-03-06T07:31:48;28.65;;;11.98;;
65328;SDS011;51941;52.210;5.158;2024-03-06T07:34:15;29.55;;;13.15;;
65328;SDS011;51941;52.210;5.158;2024-03-06T07:36:43;24.55;;;10.50;;
65328;SDS011;51941;52.210;5.158;2024-03-06T07:39:11;25.30;;;11.43;;
65328;SDS011;51941;52.210;5.158;2024-03-06T07:41:39;33.47;;;12.45;;
65328;SDS011;51941;52.210;5.158;2024-03-06T07:44:06;26.35;;;11.13;;
65328;SDS011;51941;52.210;5.158;2024-03-06T07:46:34;24.48;;;11.18;;
65328;SDS011;51941;52.210;5.158;2024-03-06T07:49:02;31.70;;;12.23;;
65328;SDS011;51941;52.210;5.158;2024-03-06T07:51:30;21.88;;;10.48;;
65328;SDS011;51941;52.210;5.158;2024-03-06T07:53:57;32.88;;;13.18;;
65328;SDS011;51941;52.210;5.158;2024-03-06T07:56:23;24.13;;;11.48;;
65328;SDS011;51941;52.210;5.158;2024-03-06T07:58:50;27.02;;;14.50;;
65328;SDS011;51941;52.210;5.158;2024-03-06T08:01:18;23.17;;;11.65;;
65328;SDS011;51941;52.210;5.158;2024-03-06T08:03:46;27.50;;;12.52;;
65328;SDS011;51941;52.210;5.158;2024-03-06T08:06:14;33.00;;;11.98;;
65328;SDS011;51941;52.210;5.158;2024-03-06T08:08:41;26.67;;;13.35;;
65328;SDS011;51941;52.210;5.158;2024-03-06T08:11:09;30.45;;;11.68;;
65328;SDS011;51941;52.210;5.158;2024-03-06T08:13:37;28.63;;;11.85;;
65328;SDS011;51941;52.210;5.158;2024-03-06T08:16:04;24.58;;;10.60;;
65328;SDS011;51941;52.210;5.158;2024-03-06T08:18:31;26.67;;;12.55;;
65328;SDS011;51941;52.210;5.158;2024-03-06T08:20:58;32.45;;;13.18;;
65328;SDS011;51941;52.210;5.158;2024-03-06T08:23:27;43.80;;;13.27;;
65328;SDS011;51941;52.210;5.158;2024-03-06T08:25:54;36.35;;;13.50;;
65328;SDS011;51941;52.210;5.158;2024-03-06T08:28:21;28.67;;;13.48;;
65328;SDS011;51941;52.210;5.158;2024-03-06T08:30:47;35.55;;;14.30;;
65328;SDS011;51941;52.210;5.158;2024-03-06T08:33:14;32.78;;;13.15;;
65328;SDS011;51941;52.210;5.158;2024-03-06T08:35:43;28.20;;;11.55;;
65328;SDS011;51941;52.210;5.158;2024-03-06T08:38:11;29.10;;;13.93;;
65328;SDS011;51941;52.210;5.158;2024-03-06T08:40:39;26.83;;;12.52;;
65328;SDS011;51941;52.210;5.158;2024-03-06T08:43:07;28.35;;;11.68;;
65328;SDS011;51941;52.210;5.158;2024-03-06T08:45:35;32.58;;;13.43;;
65328;SDS011;51941;52.210;5.158;2024-03-06T08:48:02;26.40;;;12.32;;
65328;SDS011;51941;52.210;5.158;2024-03-06T08:50:29;34.55;;;13.65;;
65328;SDS011;51941;52.210;5.158;2024-03-06T08:52:56;29.48;;;12.60;;
65328;SDS011;51941;52.210;5.158;2024-03-06T08:55:23;32.13;;;12.80;;
65328;SDS011;51941;52.210;5.158;2024-03-06T08:57:51;26.67;;;11.07;;
65328;SDS011;51941;52.210;5.158;2024-03-06T09:00:18;32.53;;;13.32;;
65328;SDS011;51941;52.210;5.158;2024-03-06T09:02:45;26.23;;;12.05;;
65328;SDS011;51941;52.210;5.158;2024-03-06T09:05:12;28.48;;;11.90;;
65328;SDS011;51941;52.210;5.158;2024-03-06T09:07:39;28.98;;;12.98;;
65328;SDS011;51941;52.210;5.158;2024-03-06T09:10:07;26.30;;;12.15;;
65328;SDS011;51941;52.210;5.158;2024-03-06T09:12:35;29.77;;;13.50;;
65328;SDS011;51941;52.210;5.158;2024-03-06T09:15:03;27.58;;;12.65;;
65328;SDS011;51941;52.210;5.158;2024-03-06T09:17:32;25.80;;;12.50;;
65328;SDS011;51941;52.210;5.158;2024-03-06T09:19:59;21.75;;;9.68;;
65328;SDS011;51941;52.210;5.158;2024-03-06T09:22:35;31.83;;;13.93;;
65328;SDS011;51941;52.210;5.158;2024-03-06T09:25:02;24.85;;;11.52;;
65328;SDS011;51941;52.210;5.158;2024-03-06T09:27:30;25.58;;;11.02;;
65328;SDS011;51941;52.210;5.158;2024-03-06T09:29:57;27.23;;;12.27;;
65328;SDS011;51941;52.210;5.158;2024-03-06T09:32:25;25.30;;;11.77;;
65328;SDS011;51941;52.210;5.158;2024-03-06T09:34:52;22.83;;;10.98;;
65328;SDS011;51941;52.210;5.158;2024-03-06T09:37:19;30.55;;;13.38;;
65328;SDS011;51941;52.210;5.158;2024-03-06T09:39:46;24.65;;;11.45;;
65328;SDS011;51941;52.210;5.158;2024-03-06T09:42:13;30.13;;;12.48;;
65328;SDS011;51941;52.210;5.158;2024-03-06T09:44:40;27.55;;;12.07;;
65328;SDS011;51941;52.210;5.158;2024-03-06T09:47:07;27.17;;;12.02;;
65328;SDS011;51941;52.210;5.158;2024-03-06T09:49:40;28.25;;;11.35;;
65328;SDS011;51941;52.210;5.158;2024-03-06T09:52:08;21.42;;;9.75;;
65328;SDS011;51941;52.210;5.158;2024-03-06T09:54:35;21.50;;;10.90;;
65328;SDS011;51941;52.210;5.158;2024-03-06T09:57:04;25.38;;;11.52;;
65328;SDS011;51941;52.210;5.158;2024-03-06T09:59:31;27.42;;;11.30;;
65328;SDS011;51941;52.210;5.158;2024-03-06T10:02:00;24.83;;;10.73;;
65328;SDS011;51941;52.210;5.158;2024-03-06T10:04:33;21.70;;;9.60;;
65328;SDS011;51941;52.210;5.158;2024-03-06T10:07:03;21.23;;;9.50;;
65328;SDS011;51941;52.210;5.158;2024-03-06T10:09:33;22.00;;;9.40;;
65328;SDS011;51941;52.210;5.158;2024-03-06T10:12:00;22.15;;;9.73;;
65328;SDS011;51941;52.210;5.158;2024-03-06T10:14:28;28.58;;;11.02;;
65328;SDS011;51941;52.210;5.158;2024-03-06T10:16:55;23.48;;;9.02;;
65328;SDS011;51941;52.210;5.158;2024-03-06T10:19:23;19.13;;;9.13;;
65328;SDS011;51941;52.210;5.158;2024-03-06T10:21:52;22.15;;;11.02;;
65328;SDS011;51941;52.210;5.158;2024-03-06T10:24:21;23.73;;;10.13;;
65328;SDS011;51941;52.210;5.158;2024-03-06T10:26:49;23.88;;;9.80;;
65328;SDS011;51941;52.210;5.158;2024-03-06T10:29:19;25.63;;;9.88;;
65328;SDS011;51941;52.210;5.158;2024-03-06T10:31:51;23.88;;;10.32;;
65328;SDS011;51941;52.210;5.158;2024-03-06T10:34:20;23.02;;;9.55;;
65328;SDS011;51941;52.210;5.158;2024-03-06T10:36:48;25.92;;;10.07;;
65328;SDS011;51941;52.210;5.158;2024-03-06T10:39:23;21.55;;;9.43;;
65328;SDS011;51941;52.210;5.158;2024-03-06T10:41:51;21.80;;;9.38;;
65328;SDS011;51941;52.210;5.158;2024-03-06T10:44:20;20.30;;;8.68;;
65328;SDS011;51941;52.210;5.158;2024-03-06T10:46:50;21.33;;;9.30;;
65328;SDS011;51941;52.210;5.158;2024-03-06T10:49:22;20.33;;;8.63;;
65328;SDS011;51941;52.210;5.158;2024-03-06T10:51:51;24.40;;;10.70;;
65328;SDS011;51941;52.210;5.158;2024-03-06T10:54:19;22.58;;;9.60;;
65328;SDS011;51941;52.210;5.158;2024-03-06T10:56:50;17.83;;;7.57;;
65328;SDS011;51941;52.210;5.158;2024-03-06T10:59:18;21.98;;;8.38;;
65328;SDS011;51941;52.210;5.158;2024-03-06T11:01:47;23.17;;;9.00;;
65328;SDS011;51941;52.210;5.158;2024-03-06T11:04:15;16.08;;;7.45;;
65328;SDS011;51941;52.210;5.158;2024-03-06T11:06:43;17.83;;;6.85;;
65328;SDS011;51941;52.210;5.158;2024-03-06T11:09:10;16.95;;;8.15;;
65328;SDS011;51941;52.210;5.158;2024-03-06T11:11:47;16.83;;;7.05;;
65328;SDS011;51941;52.210;5.158;2024-03-06T11:14:16;19.17;;;7.63;;
65328;SDS011;51941;52.210;5.158;2024-03-06T11:16:56;18.02;;;7.18;;
65328;SDS011;51941;52.210;5.158;2024-03-06T11:19:27;14.25;;;6.38;;
65328;SDS011;51941;52.210;5.158;2024-03-06T11:21:54;18.48;;;7.57;;
65328;SDS011;51941;52.210;5.158;2024-03-06T11:24:22;15.55;;;6.88;;
65328;SDS011;51941;52.210;5.158;2024-03-06T11:26:50;14.45;;;6.40;;
65328;SDS011;51941;52.210;5.158;2024-03-06T11:29:26;13.10;;;4.93;;
65328;SDS011;51941;52.210;5.158;2024-03-06T11:32:01;10.65;;;4.38;;
65328;SDS011;51941;52.210;5.158;2024-03-06T11:34:32;14.10;;;5.40;;
65328;SDS011;51941;52.210;5.158;2024-03-06T11:36:58;12.10;;;5.05;;
65328;SDS011;51941;52.210;5.158;2024-03-06T11:39:28;14.40;;;5.60;;
65328;SDS011;51941;52.210;5.158;2024-03-06T11:41:56;15.50;;;5.88;;
65328;SDS011;51941;52.210;5.158;2024-03-06T11:44:26;14.07;;;5.30;;
65328;SDS011;51941;52.210;5.158;2024-03-06T11:46:57;12.82;;;5.50;;
65328;SDS011;51941;52.210;5.158;2024-03-06T11:49:25;16.60;;;5.63;;
65328;SDS011;51941;52.210;5.158;2024-03-06T11:51:55;17.30;;;5.38;;
65328;SDS011;51941;52.210;5.158;2024-03-06T11:54:23;13.55;;;6.10;;
65328;SDS011;51941;52.210;5.158;2024-03-06T11:56:52;15.23;;;6.25;;
65328;SDS011;51941;52.210;5.158;2024-03-06T11:59:20;12.18;;;4.97;;
65328;SDS011;51941;52.210;5.158;2024-03-06T12:01:50;11.13;;;4.40;;
65328;SDS011;51941;52.210;5.158;2024-03-06T12:04:18;12.40;;;4.32;;
65328;SDS011;51941;52.210;5.158;2024-03-06T12:06:45;9.65;;;3.60;;
65328;SDS011;51941;52.210;5.158;2024-03-06T12:09:13;9.30;;;4.22;;
65328;SDS011;51941;52.210;5.158;2024-03-06T12:11:40;12.00;;;3.83;;
65328;SDS011;51941;52.210;5.158;2024-03-06T12:14:12;12.45;;;4.60;;
65328;SDS011;51941;52.210;5.158;2024-03-06T12:16:41;14.48;;;5.38;;
65328;SDS011;51941;52.210;5.158;2024-03-06T12:19:09;10.73;;;4.90;;
65328;SDS011;51941;52.210;5.158;2024-03-06T12:21:36;13.02;;;5.68;;
65328;SDS011;51941;52.210;5.158;2024-03-06T12:24:05;12.10;;;4.40;;
65328;SDS011;51941;52.210;5.158;2024-03-06T12:26:34;8.65;;;3.78;;
65328;SDS011;51941;52.210;5.158;2024-03-06T12:29:08;11.05;;;4.45;;
65328;SDS011;51941;52.210;5.158;2024-03-06T12:31:37;8.15;;;2.97;;
65328;SDS011;51941;52.210;5.158;2024-03-06T12:34:05;10.18;;;3.83;;
65328;SDS011;51941;52.210;5.158;2024-03-06T12:36:34;10.48;;;4.57;;
65328;SDS011;51941;52.210;5.158;2024-03-06T12:39:01;11.70;;;4.72;;
65328;SDS011;51941;52.210;5.158;2024-03-06T12:41:37;14.70;;;5.55;;
65328;SDS011;51941;52.210;5.158;2024-03-06T12:44:04;12.27;;;4.53;;
65328;SDS011;51941;52.210;5.158;2024-03-06T12:46:32;13.20;;;5.28;;
65328;SDS011;51941;52.210;5.158;2024-03-06T12:48:59;12.15;;;5.57;;
65328;SDS011;51941;52.210;5.158;2024-03-06T12:51:25;16.05;;;5.55;;
65328;SDS011;51941;52.210;5.158;2024-03-06T12:53:54;11.15;;;4.63;;
65328;SDS011;51941;52.210;5.158;2024-03-06T12:56:20;14.15;;;5.55;;
65328;SDS011;51941;52.210;5.158;2024-03-06T12:58:47;13.75;;;5.72;;
65328;SDS011;51941;52.210;5.158;2024-03-06T13:01:14;16.90;;;6.15;;
65328;SDS011;51941;52.210;5.158;2024-03-06T13:03:41;12.82;;;5.13;;
65328;SDS011;51941;52.210;5.158;2024-03-06T13:06:08;16.08;;;5.95;;
65328;SDS011;51941;52.210;5.158;2024-03-06T13:08:35;13.18;;;5.03;;
65328;SDS011;51941;52.210;5.158;2024-03-06T13:11:03;12.80;;;4.95;;
65328;SDS011;51941;52.210;5.158;2024-03-06T13:13:30;12.25;;;4.97;;
65328;SDS011;51941;52.210;5.158;2024-03-06T13:15:59;9.15;;;4.07;;
65328;SDS011;51941;52.210;5.158;2024-03-06T13:18:26;9.95;;;4.43;;
65328;SDS011;51941;52.210;5.158;2024-03-06T13:20:53;11.77;;;4.20;;
65328;SDS011;51941;52.210;5.158;2024-03-06T13:23:20;10.88;;;4.68;;
65328;SDS011;51941;52.210;5.158;2024-03-06T13:25:47;8.63;;;3.63;;
65328;SDS011;51941;52.210;5.158;2024-03-06T13:28:15;14.18;;;4.78;;
65328;SDS011;51941;52.210;5.158;2024-03-06T13:30:42;9.80;;;3.90;;
65328;SDS011;51941;52.210;5.158;2024-03-06T13:33:09;13.90;;;4.97;;
65328;SDS011;51941;52.210;5.158;2024-03-06T13:35:37;12.35;;;4.75;;
65328;SDS011;51941;52.210;5.158;2024-03-06T13:38:04;10.50;;;4.20;;
65328;SDS011;51941;52.210;5.158;2024-03-06T13:40:31;12.05;;;4.78;;
65328;SDS011;51941;52.210;5.158;2024-03-06T13:42:58;14.80;;;4.40;;
65328;SDS011;51941;52.210;5.158;2024-03-06T13:45:26;10.45;;;4.38;;
65328;SDS011;51941;52.210;5.158;2024-03-06T13:47:53;13.20;;;4.20;;
65328;SDS011;51941;52.210;5.158;2024-03-06T13:50:20;10.85;;;4.47;;
65328;SDS011;51941;52.210;5.158;2024-03-06T13:52:48;10.98;;;4.40;;
65328;SDS011;51941;52.210;5.158;2024-03-06T13:55:16;10.68;;;4.35;;
65328;SDS011;51941;52.210;5.158;2024-03-06T13:57:43;9.75;;;3.70;;
65328;SDS011;51941;52.210;5.158;2024-03-06T14:00:10;8.65;;;3.58;;
65328;SDS011;51941;52.210;5.158;2024-03-06T14:02:43;11.30;;;4.00;;
65328;SDS011;51941;52.210;5.158;2024-03-06T14:05:12;10.07;;;3.85;;
65328;SDS011;51941;52.210;5.158;2024-03-06T14:07:39;10.50;;;3.83;;
65328;SDS011;51941;52.210;5.158;2024-03-06T14:10:07;9.93;;;4.10;;
65328;SDS011;51941;52.210;5.158;2024-03-06T14:12:35;9.43;;;4.03;;
65328;SDS011;51941;52.210;5.158;2024-03-06T14:15:02;9.00;;;3.67;;
65328;SDS011;51941;52.210;5.158;2024-03-06T14:17:30;11.52;;;3.90;;
65328;SDS011;51941;52.210;5.158;2024-03-06T14:19:58;10.32;;;3.70;;
65328;SDS011;51941;52.210;5.158;2024-03-06T14:22:25;11.00;;;3.65;;
65328;SDS011;51941;52.210;5.158;2024-03-06T14:24:52;9.70;;;3.40;;
65328;SDS011;51941;52.210;5.158;2024-03-06T14:27:19;10.77;;;3.83;;
65328;SDS011;51941;52.210;5.158;2024-03-06T14:29:46;13.07;;;4.32;;